Terminal Aerodrome Forecast
Issued by NWS Sterling, VA

Home | Current Version | Previous Version | Text Only | Print | Product List | Glossary On
Versions: 1 2 3 4 5 6 7 8 9 10 11 12 13 14 15 16 17 18 19 20 21 22
000
FTUS41 KLWX 232000 AAA
TAFBWI
TAF AMD
KBWI 232034Z 2321/2424 21007KT P6SM VCTS SCT060CB BKN250
     FM240200 25004KT P6SM VCTS BKN040CB BKN080
     FM240700 31004KT P6SM VCTS BKN040CB BKN080
     FM240900 34006KT P6SM BKN040 OVC080=

USA.gov is the U.S. government's official web portal to all federal, state and local government web resources and services.